createdAt,value
2018-09-11T00:03:07.056Z,48.7
2018-09-11T00:08:06.169Z,48.7
2018-09-11T00:13:04.830Z,48.7
2018-09-11T00:18:03.710Z,48.8
2018-09-11T00:23:02.491Z,48.7
2018-09-11T00:28:01.389Z,48.7
2018-09-11T00:33:00.224Z,48.7
2018-09-11T00:37:59.055Z,48.7
2018-09-11T00:42:57.813Z,48.7
2018-09-11T00:47:56.865Z,48.7
2018-09-11T00:52:55.789Z,48.7
2018-09-11T00:57:54.564Z,48.7
2018-09-11T01:02:53.017Z,48.7
2018-09-11T01:07:51.891Z,48.7
2018-09-11T01:12:50.910Z,48.7
2018-09-11T01:17:49.757Z,48.8
2018-09-11T01:22:48.172Z,48.8
2018-09-11T01:27:47.280Z,48.8
2018-09-11T01:32:45.685Z,48.8
2018-09-11T01:37:44.348Z,48.8
2018-09-11T01:42:43.179Z,48.7
2018-09-11T01:47:41.820Z,48.7
2018-09-11T01:57:47.937Z,48.7
2018-09-11T02:02:46.711Z,48.7
2018-09-11T02:07:45.371Z,48.7
2018-09-11T02:12:43.765Z,48.8
2018-09-11T02:17:42.651Z,48.8
2018-09-11T02:22:41.579Z,48.8
2018-09-11T02:27:39.779Z,48.8
2018-09-11T02:32:38.555Z,48.8
2018-09-11T02:37:37.459Z,48.8
2018-09-11T02:42:36.206Z,48.8
2018-09-11T02:47:35.023Z,48.8
2018-09-11T02:52:34.092Z,48.8
2018-09-11T02:57:33.053Z,48.8
2018-09-11T03:02:31.974Z,48.7
2018-09-11T03:07:30.816Z,48.8
2018-09-11T03:12:29.564Z,48.8
2018-09-11T03:17:28.251Z,48.8
2018-09-11T03:22:27.048Z,48.8
2018-09-11T03:27:25.976Z,48.8
2018-09-11T03:32:24.671Z,48.8
2018-09-11T03:37:23.513Z,48.8
2018-09-11T03:42:22.595Z,48.8
2018-09-11T03:47:21.406Z,48.8
2018-09-11T03:52:20.424Z,48.8
2018-09-11T03:57:19.081Z,48.8
2018-09-11T04:02:18.060Z,48.8
2018-09-11T04:07:16.473Z,48.8
2018-09-11T04:12:15.433Z,48.8
2018-09-11T04:17:14.122Z,48.8
2018-09-11T04:22:13.176Z,48.8
2018-09-11T04:27:12.304Z,48.8
2018-09-11T04:32:11.093Z,48.8
2018-09-11T04:37:10.224Z,48.8
2018-09-11T04:42:09.072Z,48.8
2018-09-11T04:47:07.880Z,48.7
2018-09-11T04:52:06.864Z,48.7
2018-09-11T04:57:05.665Z,48.7
2018-09-11T05:02:04.544Z,48.7
2018-09-11T05:07:03.332Z,48.7
2018-09-11T05:12:02.544Z,48.7
2018-09-11T05:17:01.717Z,48.7
2018-09-11T05:22:00.323Z,48.8
2018-09-11T05:26:58.499Z,48.8
2018-09-11T05:31:57.528Z,48.8
2018-09-11T05:36:56.498Z,48.9
2018-09-11T05:41:55.365Z,48.9
2018-09-11T05:46:54.148Z,48.9
2018-09-11T05:51:52.900Z,48.9
2018-09-11T05:56:51.780Z,49
2018-09-11T06:01:50.798Z,49
2018-09-11T06:06:49.808Z,49
2018-09-11T08:41:18.335Z,50.6
2018-09-11T08:46:17.503Z,50.6
2018-09-11T08:51:16.692Z,50.6
2018-09-11T08:56:15.472Z,50.6
2018-09-11T09:01:14.553Z,50.7
2018-09-11T09:06:13.387Z,50.7
2018-09-11T09:11:12.405Z,50.7
2018-09-11T09:16:11.495Z,50.7
2018-09-11T09:21:10.379Z,50.7
2018-09-11T09:26:09.203Z,50.8
2018-09-11T09:31:08.145Z,50.8
2018-09-11T09:36:07.219Z,50.8
2018-09-11T09:41:06.382Z,50.8
2018-09-11T09:46:05.345Z,50.8
2018-09-11T09:51:04.205Z,50.8
2018-09-11T09:56:03.025Z,50.8
2018-09-11T10:01:02.027Z,50.8
2018-09-11T10:06:01.028Z,50.8
2018-09-11T10:11:00.225Z,50.8
2018-09-11T10:15:59.106Z,50.8
2018-09-11T10:20:58.145Z,50.8
2018-09-11T10:25:57.108Z,50.8
2018-09-11T10:30:55.992Z,50.9
2018-09-11T10:35:55.220Z,50.9
2018-09-11T10:40:54.267Z,50.8
2018-09-11T10:45:53.440Z,50.8
2018-09-11T10:50:52.594Z,50.8
2018-09-11T10:55:51.354Z,50.8
2018-09-11T11:00:50.154Z,50.8
2018-09-11T11:05:49.096Z,50.8
2018-09-11T11:10:48.063Z,50.8
2018-09-11T11:15:47.072Z,50.8
2018-09-11T11:20:46.060Z,50.8
2018-09-11T11:25:45.298Z,50.8
2018-09-11T11:30:44.308Z,50.8
2018-09-11T11:35:43.441Z,50.8
2018-09-11T11:40:42.725Z,50.8
2018-09-11T11:45:41.925Z,50.7
2018-09-11T11:50:40.626Z,50.7
2018-09-11T11:55:39.780Z,50.7
2018-09-11T12:00:38.371Z,50.7
2018-09-11T12:05:37.370Z,50.7
2018-09-11T12:10:36.319Z,50.7
2018-09-11T12:15:35.397Z,50.7
2018-09-11T12:20:34.292Z,50.6
2018-09-11T12:25:33.379Z,50.6
2018-09-11T12:30:32.464Z,50.6
2018-09-11T12:35:31.435Z,50.6
2018-09-11T12:40:30.972Z,50.6
2018-09-11T12:45:30.280Z,50.6
2018-09-11T12:50:29.492Z,50.5
2018-09-11T12:55:28.532Z,50.5
2018-09-11T13:00:27.514Z,50.4
2018-09-11T13:05:26.797Z,50.4
2018-09-11T13:10:25.725Z,50.4
2018-09-11T13:15:24.848Z,50.4
2018-09-11T13:20:23.881Z,50.4
2018-09-11T13:25:22.810Z,50.4
2018-09-11T13:30:22.050Z,50.4
2018-09-11T13:35:20.925Z,50.3
2018-09-11T13:40:19.913Z,50.3
2018-09-11T13:45:18.858Z,50.3
2018-09-11T13:50:18.011Z,50.3
2018-09-11T13:55:17.011Z,50.3
2018-09-11T14:00:16.327Z,50.3
2018-09-11T14:05:15.254Z,50.3
2018-09-11T14:10:14.335Z,50.3
2018-09-11T14:15:13.224Z,50.2
2018-09-11T14:20:12.077Z,50.1
2018-09-11T14:25:11.283Z,50.1
2018-09-11T14:30:10.140Z,50.1
2018-09-11T14:35:08.858Z,50.1
2018-09-11T14:40:07.934Z,50.1
2018-09-11T14:45:07.023Z,50.1
2018-09-11T14:50:06.103Z,50.1
2018-09-11T14:55:05.175Z,50
2018-09-11T15:00:04.294Z,50
2018-09-11T15:05:02.997Z,50
2018-09-11T15:10:02.088Z,50
2018-09-11T15:15:01.324Z,50
2018-09-11T15:20:00.465Z,50
2018-09-11T15:24:59.528Z,50
2018-09-11T15:29:58.733Z,50
2018-09-11T15:34:57.932Z,49.9
2018-09-11T15:39:56.831Z,49.9
2018-09-11T15:44:55.406Z,49.9
2018-09-11T15:49:54.447Z,49.9
2018-09-11T15:54:53.642Z,49.9
2018-09-11T15:59:52.680Z,49.8
2018-09-11T16:04:51.551Z,49.8
2018-09-11T16:09:50.504Z,49.8
2018-09-11T16:14:49.468Z,49.8
2018-09-11T16:19:48.468Z,49.8
2018-09-11T16:24:47.706Z,49.8
2018-09-11T16:29:46.941Z,49.8
2018-09-11T16:34:46.225Z,49.8
2018-09-11T16:39:45.101Z,49.7
2018-09-11T16:44:44.042Z,49.7
2018-09-11T16:49:42.964Z,49.7
2018-09-11T16:54:41.969Z,49.7
2018-09-11T16:59:41.474Z,49.7
2018-09-11T17:04:40.532Z,49.6
2018-09-11T17:09:39.709Z,49.6
2018-09-11T17:14:39.279Z,49.6
2018-09-11T17:19:39.320Z,49.6
2018-09-11T17:24:38.562Z,49.6
2018-09-11T17:29:37.473Z,49.6
2018-09-11T17:34:37.115Z,49.6
2018-09-11T17:39:37.567Z,49.6
2018-09-11T17:44:36.610Z,49.6
2018-09-11T17:49:35.417Z,49.5
2018-09-11T17:54:35.883Z,49.5
2018-09-11T17:59:34.675Z,49.5
2018-09-11T18:04:34.187Z,49.5
2018-09-11T18:09:33.253Z,49.5
2018-09-11T18:14:32.372Z,49.5
2018-09-11T18:19:31.704Z,49.5
2018-09-11T18:24:30.929Z,49.4
2018-09-11T18:29:29.452Z,49.4
2018-09-11T18:34:28.658Z,49.4
2018-09-11T18:39:27.983Z,49.4
2018-09-11T18:44:27.548Z,49.4
2018-09-11T18:49:26.322Z,49.4
2018-09-11T18:54:25.232Z,49.4
2018-09-11T18:59:24.233Z,49.4
2018-09-11T19:04:23.355Z,49.4
2018-09-11T19:09:22.453Z,49.3
2018-09-11T19:14:21.435Z,49.4
2018-09-11T19:19:20.433Z,49.3
2018-09-11T19:24:18.946Z,49.2
2018-09-11T19:29:18.028Z,49.2
2018-09-11T19:34:16.866Z,49.2
2018-09-11T19:39:15.828Z,49.2
2018-09-11T19:44:14.986Z,49.2
2018-09-11T19:49:13.925Z,49.2
2018-09-11T19:54:13.067Z,49.2
2018-09-11T19:59:11.917Z,49.2
2018-09-11T20:04:10.863Z,49.2
2018-09-11T20:09:09.579Z,49.2
2018-09-11T20:14:08.475Z,49.1
2018-09-11T20:19:07.625Z,49.1
2018-09-11T20:24:06.616Z,49
2018-09-11T20:29:05.643Z,49
2018-09-11T20:34:04.695Z,49
2018-09-11T20:39:03.651Z,49.1
2018-09-11T20:44:02.598Z,49.1
2018-09-11T20:49:01.306Z,49.1
2018-09-11T20:54:00.496Z,49.1
2018-09-11T20:58:59.427Z,49
2018-09-11T21:03:58.191Z,49
2018-09-11T21:08:57.219Z,49
2018-09-11T21:13:56.025Z,49
2018-09-11T21:18:54.816Z,49
2018-09-11T21:23:53.914Z,48.9
2018-09-11T21:28:52.832Z,48.9
2018-09-11T21:33:51.486Z,48.9
2018-09-11T21:38:50.432Z,48.9
2018-09-11T21:43:49.321Z,48.9
2018-09-11T21:48:47.734Z,48.9
2018-09-11T21:53:46.636Z,48.9
2018-09-11T21:58:45.402Z,48.9
2018-09-11T22:03:43.839Z,48.9
2018-09-11T22:08:42.381Z,48.9
2018-09-11T22:13:41.229Z,48.9
2018-09-11T22:18:40.394Z,48.9
2018-09-11T22:23:39.145Z,48.9
2018-09-11T22:28:37.981Z,48.8
2018-09-11T22:33:36.892Z,48.9
2018-09-11T22:38:35.621Z,48.8
2018-09-11T22:43:34.518Z,48.9
2018-09-11T22:48:33.357Z,48.9
2018-09-11T22:53:32.437Z,48.9
2018-09-11T22:58:31.338Z,48.9
2018-09-11T23:03:30.103Z,48.9
2018-09-11T23:08:29.137Z,48.9
2018-09-11T23:13:28.143Z,48.9
2018-09-11T23:18:27.237Z,48.9
2018-09-11T23:23:26.144Z,48.8
2018-09-11T23:28:25.126Z,48.8
2018-09-11T23:33:24.203Z,48.8
2018-09-11T23:38:23.143Z,48.8
2018-09-11T23:43:22.118Z,48.8
2018-09-11T23:48:21.105Z,48.9
2018-09-11T23:53:20.056Z,48.9
2018-09-11T23:58:19.084Z,48.9
